SKCL/CLO METAR and TAF weather

Enter ICAO airport designator
Station Type Date Time Source
SKCL METAR 2019/04/23 04:00 UTC NOAA

SKCL 230400Z 19004KT 6000 -DZ BKN010 BKN090 21/20 A3007


Station Type Date Time Source
SKCL Decoded METAR 2019/04/23 04:00 UTC NOAA

Cali / Alfonso Bonillaaragon, Colombia (SKCL) 03-33N 076-23W 969M
Apr 23, 2019 - 12:00 AM EDT / 2019.04.23 0400 UTC
Wind: from the S (190 degrees) at 5 MPH (4 KT):0
Visibility: 3 mile(s):0
Sky conditions: mostly cloudy
Weather: light drizzle
Temperature: 69 F (21 C)
Dew Point: 68 F (20 C)
Relative Humidity: 94%
Pressure (altimeter): 30.07 in. Hg (1018 hPa)
ob: SKCL 230400Z 19004KT 6000 -DZ BKN010 BKN090 21/20 A3007
cycle: 4

Station Type Date Time Source
SKCL TAF 2019/04/23 06:48 UTC NOAA

TAF TAF SKCL 230430Z 2306/2406 VRB02KT 8000 DZ BKN010 SCT080
TEMPO 2307/2313 5000 DZRA BR
BECMG 2316/2318 32008KT 9999 NSW TX30/2320Z TN19/2311Z

Example: see airport list